sensor_id;sensor_type;location;lat;lon;timestamp;P1;durP1;ratioP1;P2;durP2;ratioP2
15116;SDS011;7659;51.038;13.786;2023-10-09T00:00:33;7.07;;;2.67;;
15116;SDS011;7659;51.038;13.786;2023-10-09T00:03:19;8.10;;;3.10;;
15116;SDS011;7659;51.038;13.786;2023-10-09T00:05:47;7.38;;;3.20;;
15116;SDS011;7659;51.038;13.786;2023-10-09T00:08:16;5.35;;;3.08;;
15116;SDS011;7659;51.038;13.786;2023-10-09T00:10:44;9.45;;;3.40;;
15116;SDS011;7659;51.038;13.786;2023-10-09T00:13:14;6.22;;;2.50;;
15116;SDS011;7659;51.038;13.786;2023-10-09T00:15:40;12.68;;;3.33;;
15116;SDS011;7659;51.038;13.786;2023-10-09T00:18:07;8.23;;;3.15;;
15116;SDS011;7659;51.038;13.786;2023-10-09T00:20:37;8.38;;;3.35;;
15116;SDS011;7659;51.038;13.786;2023-10-09T00:23:08;9.25;;;2.95;;
15116;SDS011;7659;51.038;13.786;2023-10-09T00:25:38;7.65;;;2.78;;
15116;SDS011;7659;51.038;13.786;2023-10-09T00:28:10;9.18;;;3.58;;
15116;SDS011;7659;51.038;13.786;2023-10-09T00:30:40;9.48;;;3.20;;
15116;SDS011;7659;51.038;13.786;2023-10-09T00:33:06;16.92;;;9.38;;
15116;SDS011;7659;51.038;13.786;2023-10-09T00:35:36;46.55;;;31.60;;
15116;SDS011;7659;51.038;13.786;2023-10-09T00:38:02;11.13;;;4.57;;
15116;SDS011;7659;51.038;13.786;2023-10-09T00:40:40;6.80;;;3.35;;
15116;SDS011;7659;51.038;13.786;2023-10-09T00:43:11;8.35;;;3.03;;
15116;SDS011;7659;51.038;13.786;2023-10-09T00:45:39;10.30;;;3.38;;
15116;SDS011;7659;51.038;13.786;2023-10-09T00:48:06;8.10;;;3.53;;
15116;SDS011;7659;51.038;13.786;2023-10-09T00:50:31;6.65;;;2.80;;
15116;SDS011;7659;51.038;13.786;2023-10-09T00:53:01;6.68;;;3.15;;
15116;SDS011;7659;51.038;13.786;2023-10-09T00:55:36;6.57;;;2.95;;
15116;SDS011;7659;51.038;13.786;2023-10-09T00:58:08;6.05;;;2.83;;
15116;SDS011;7659;51.038;13.786;2023-10-09T01:00:40;6.80;;;2.95;;
15116;SDS011;7659;51.038;13.786;2023-10-09T01:03:10;7.47;;;3.15;;
15116;SDS011;7659;51.038;13.786;2023-10-09T01:05:39;8.38;;;3.05;;
15116;SDS011;7659;51.038;13.786;2023-10-09T01:08:18;20.40;;;9.23;;
15116;SDS011;7659;51.038;13.786;2023-10-09T01:10:51;66.10;;;48.30;;
15116;SDS011;7659;51.038;13.786;2023-10-09T01:13:24;19.38;;;8.98;;
15116;SDS011;7659;51.038;13.786;2023-10-09T01:16:05;9.63;;;3.17;;
15116;SDS011;7659;51.038;13.786;2023-10-09T01:18:30;9.13;;;2.95;;
15116;SDS011;7659;51.038;13.786;2023-10-09T01:21:01;6.50;;;2.92;;
15116;SDS011;7659;51.038;13.786;2023-10-09T01:23:28;6.40;;;2.75;;
15116;SDS011;7659;51.038;13.786;2023-10-09T01:25:55;7.00;;;3.30;;
15116;SDS011;7659;51.038;13.786;2023-10-09T01:28:20;4.90;;;2.88;;
15116;SDS011;7659;51.038;13.786;2023-10-09T01:30:46;7.28;;;3.00;;
15116;SDS011;7659;51.038;13.786;2023-10-09T01:33:13;27.92;;;17.60;;
15116;SDS011;7659;51.038;13.786;2023-10-09T01:35:53;19.17;;;11.82;;
15116;SDS011;7659;51.038;13.786;2023-10-09T01:38:27;7.53;;;3.35;;
15116;SDS011;7659;51.038;13.786;2023-10-09T01:41:27;7.15;;;3.05;;
15116;SDS011;7659;51.038;13.786;2023-10-09T01:43:53;9.23;;;3.75;;
15116;SDS011;7659;51.038;13.786;2023-10-09T01:46:25;9.52;;;3.67;;
15116;SDS011;7659;51.038;13.786;2023-10-09T01:48:51;11.63;;;3.70;;
15116;SDS011;7659;51.038;13.786;2023-10-09T01:51:19;7.10;;;3.80;;
15116;SDS011;7659;51.038;13.786;2023-10-09T01:53:45;7.85;;;4.15;;
15116;SDS011;7659;51.038;13.786;2023-10-09T01:56:19;5.22;;;3.47;;
15116;SDS011;7659;51.038;13.786;2023-10-09T01:58:45;8.45;;;3.85;;
15116;SDS011;7659;51.038;13.786;2023-10-09T02:01:13;7.45;;;4.13;;
15116;SDS011;7659;51.038;13.786;2023-10-09T02:03:39;5.35;;;3.72;;
15116;SDS011;7659;51.038;13.786;2023-10-09T02:06:07;9.65;;;3.78;;
15116;SDS011;7659;51.038;13.786;2023-10-09T02:08:51;6.55;;;3.65;;
15116;SDS011;7659;51.038;13.786;2023-10-09T02:11:16;6.68;;;3.70;;
15116;SDS011;7659;51.038;13.786;2023-10-09T02:14:01;13.55;;;4.30;;
15116;SDS011;7659;51.038;13.786;2023-10-09T02:16:31;7.22;;;3.45;;
15116;SDS011;7659;51.038;13.786;2023-10-09T02:19:07;6.28;;;3.50;;
15116;SDS011;7659;51.038;13.786;2023-10-09T02:21:55;8.00;;;4.00;;
15116;SDS011;7659;51.038;13.786;2023-10-09T02:24:23;6.38;;;3.85;;
15116;SDS011;7659;51.038;13.786;2023-10-09T02:26:53;6.63;;;3.47;;
15116;SDS011;7659;51.038;13.786;2023-10-09T02:29:19;6.80;;;3.30;;
15116;SDS011;7659;51.038;13.786;2023-10-09T02:31:49;8.15;;;3.53;;
15116;SDS011;7659;51.038;13.786;2023-10-09T02:34:17;4.60;;;3.20;;
15116;SDS011;7659;51.038;13.786;2023-10-09T02:36:46;4.95;;;3.47;;
15116;SDS011;7659;51.038;13.786;2023-10-09T02:39:15;8.68;;;3.53;;
15116;SDS011;7659;51.038;13.786;2023-10-09T02:44:15;5.95;;;2.80;;
15116;SDS011;7659;51.038;13.786;2023-10-09T02:46:42;6.57;;;3.53;;
15116;SDS011;7659;51.038;13.786;2023-10-09T02:49:10;8.18;;;3.97;;
15116;SDS011;7659;51.038;13.786;2023-10-09T02:51:41;4.63;;;3.22;;
15116;SDS011;7659;51.038;13.786;2023-10-09T02:54:13;9.05;;;3.67;;
15116;SDS011;7659;51.038;13.786;2023-10-09T02:56:48;7.53;;;3.40;;
15116;SDS011;7659;51.038;13.786;2023-10-09T02:59:20;5.60;;;3.50;;
15116;SDS011;7659;51.038;13.786;2023-10-09T03:01:47;6.78;;;3.75;;
15116;SDS011;7659;51.038;13.786;2023-10-09T03:04:13;7.50;;;3.63;;
15116;SDS011;7659;51.038;13.786;2023-10-09T03:06:40;5.63;;;3.50;;
15116;SDS011;7659;51.038;13.786;2023-10-09T03:09:19;8.88;;;4.28;;
15116;SDS011;7659;51.038;13.786;2023-10-09T03:11:51;6.82;;;3.63;;
15116;SDS011;7659;51.038;13.786;2023-10-09T03:14:20;8.35;;;4.07;;
15116;SDS011;7659;51.038;13.786;2023-10-09T03:16:49;7.68;;;3.97;;
15116;SDS011;7659;51.038;13.786;2023-10-09T03:19:14;6.22;;;3.95;;
15116;SDS011;7659;51.038;13.786;2023-10-09T03:21:40;7.47;;;3.80;;
15116;SDS011;7659;51.038;13.786;2023-10-09T03:24:06;9.70;;;4.32;;
15116;SDS011;7659;51.038;13.786;2023-10-09T03:26:33;8.10;;;4.50;;
15116;SDS011;7659;51.038;13.786;2023-10-09T03:28:58;8.25;;;4.50;;
15116;SDS011;7659;51.038;13.786;2023-10-09T03:31:30;7.90;;;4.30;;
15116;SDS011;7659;51.038;13.786;2023-10-09T03:33:56;12.05;;;4.75;;
15116;SDS011;7659;51.038;13.786;2023-10-09T03:36:21;10.90;;;5.18;;
15116;SDS011;7659;51.038;13.786;2023-10-09T03:38:47;7.20;;;4.80;;
15116;SDS011;7659;51.038;13.786;2023-10-09T03:41:13;9.40;;;5.13;;
15116;SDS011;7659;51.038;13.786;2023-10-09T03:43:39;13.48;;;5.70;;
15116;SDS011;7659;51.038;13.786;2023-10-09T03:46:09;9.95;;;6.00;;
15116;SDS011;7659;51.038;13.786;2023-10-09T03:48:47;10.85;;;5.90;;
15116;SDS011;7659;51.038;13.786;2023-10-09T03:51:13;12.25;;;6.60;;
15116;SDS011;7659;51.038;13.786;2023-10-09T03:53:46;9.23;;;6.10;;
15116;SDS011;7659;51.038;13.786;2023-10-09T03:56:12;10.25;;;6.75;;
15116;SDS011;7659;51.038;13.786;2023-10-09T03:58:47;13.32;;;7.38;;
15116;SDS011;7659;51.038;13.786;2023-10-09T04:01:15;11.40;;;6.65;;
15116;SDS011;7659;51.038;13.786;2023-10-09T04:03:57;12.18;;;7.00;;
15116;SDS011;7659;51.038;13.786;2023-10-09T04:06:25;11.93;;;7.82;;
15116;SDS011;7659;51.038;13.786;2023-10-09T04:08:56;10.25;;;7.80;;
15116;SDS011;7659;51.038;13.786;2023-10-09T04:11:23;10.50;;;8.15;;
15116;SDS011;7659;51.038;13.786;2023-10-09T04:13:50;13.18;;;8.10;;
15116;SDS011;7659;51.038;13.786;2023-10-09T04:16:17;12.80;;;9.07;;
15116;SDS011;7659;51.038;13.786;2023-10-09T04:19:05;12.65;;;8.65;;
15116;SDS011;7659;51.038;13.786;2023-10-09T04:21:37;12.65;;;8.27;;
15116;SDS011;7659;51.038;13.786;2023-10-09T04:24:08;12.00;;;9.20;;
15116;SDS011;7659;51.038;13.786;2023-10-09T04:26:40;17.60;;;9.07;;
15116;SDS011;7659;51.038;13.786;2023-10-09T04:29:15;13.95;;;9.20;;
15116;SDS011;7659;51.038;13.786;2023-10-09T04:31:53;12.25;;;8.43;;
15116;SDS011;7659;51.038;13.786;2023-10-09T04:34:21;12.50;;;9.40;;
15116;SDS011;7659;51.038;13.786;2023-10-09T04:36:47;15.32;;;9.25;;
15116;SDS011;7659;51.038;13.786;2023-10-09T04:39:15;15.48;;;8.73;;
15116;SDS011;7659;51.038;13.786;2023-10-09T04:41:55;14.95;;;8.88;;
15116;SDS011;7659;51.038;13.786;2023-10-09T04:44:40;10.85;;;8.93;;
15116;SDS011;7659;51.038;13.786;2023-10-09T04:47:24;12.35;;;7.75;;
15116;SDS011;7659;51.038;13.786;2023-10-09T04:49:51;11.27;;;8.02;;
15116;SDS011;7659;51.038;13.786;2023-10-09T04:52:25;11.68;;;7.82;;
15116;SDS011;7659;51.038;13.786;2023-10-09T04:54:54;10.82;;;8.18;;
15116;SDS011;7659;51.038;13.786;2023-10-09T04:57:34;10.75;;;8.35;;
15116;SDS011;7659;51.038;13.786;2023-10-09T05:03:08;16.45;;;9.07;;
15116;SDS011;7659;51.038;13.786;2023-10-09T05:05:52;12.37;;;7.87;;
15116;SDS011;7659;51.038;13.786;2023-10-09T05:08:24;9.57;;;7.40;;
15116;SDS011;7659;51.038;13.786;2023-10-09T05:10:53;14.30;;;8.05;;
15116;SDS011;7659;51.038;13.786;2023-10-09T05:13:28;14.30;;;8.25;;
15116;SDS011;7659;51.038;13.786;2023-10-09T05:16:15;16.50;;;8.48;;
15116;SDS011;7659;51.038;13.786;2023-10-09T05:18:58;12.13;;;7.88;;
15116;SDS011;7659;51.038;13.786;2023-10-09T05:21:32;10.37;;;7.33;;
15116;SDS011;7659;51.038;13.786;2023-10-09T05:23:59;12.80;;;8.30;;
15116;SDS011;7659;51.038;13.786;2023-10-09T05:26:50;14.38;;;8.10;;
15116;SDS011;7659;51.038;13.786;2023-10-09T05:31:48;14.77;;;8.70;;
15116;SDS011;7659;51.038;13.786;2023-10-09T05:34:29;15.63;;;8.90;;
15116;SDS011;7659;51.038;13.786;2023-10-09T05:37:13;17.20;;;9.55;;
15116;SDS011;7659;51.038;13.786;2023-10-09T05:39:53;13.80;;;8.70;;
15116;SDS011;7659;51.038;13.786;2023-10-09T05:42:36;20.05;;;11.05;;
15116;SDS011;7659;51.038;13.786;2023-10-09T05:45:08;13.90;;;8.70;;
15116;SDS011;7659;51.038;13.786;2023-10-09T05:47:44;17.25;;;9.25;;
15116;SDS011;7659;51.038;13.786;2023-10-09T05:50:22;17.08;;;9.20;;
15116;SDS011;7659;51.038;13.786;2023-10-09T05:52:48;17.75;;;9.32;;
15116;SDS011;7659;51.038;13.786;2023-10-09T05:55:19;12.63;;;9.10;;
15116;SDS011;7659;51.038;13.786;2023-10-09T05:57:51;15.35;;;10.20;;
15116;SDS011;7659;51.038;13.786;2023-10-09T06:00:28;17.08;;;10.45;;
15116;SDS011;7659;51.038;13.786;2023-10-09T06:03:12;15.55;;;9.70;;
15116;SDS011;7659;51.038;13.786;2023-10-09T06:05:47;14.82;;;10.38;;
15116;SDS011;7659;51.038;13.786;2023-10-09T06:08:16;16.55;;;10.93;;
15116;SDS011;7659;51.038;13.786;2023-10-09T06:10:50;17.80;;;11.25;;
15116;SDS011;7659;51.038;13.786;2023-10-09T06:13:31;16.67;;;11.23;;
15116;SDS011;7659;51.038;13.786;2023-10-09T06:16:11;18.50;;;11.20;;
15116;SDS011;7659;51.038;13.786;2023-10-09T06:18:57;14.32;;;10.27;;
15116;SDS011;7659;51.038;13.786;2023-10-09T06:21:38;15.75;;;11.43;;
15116;SDS011;7659;51.038;13.786;2023-10-09T06:24:19;18.42;;;10.95;;
15116;SDS011;7659;51.038;13.786;2023-10-09T06:26:45;15.43;;;11.27;;
15116;SDS011;7659;51.038;13.786;2023-10-09T06:29:26;20.02;;;12.15;;
15116;SDS011;7659;51.038;13.786;2023-10-09T06:32:16;19.52;;;12.05;;
15116;SDS011;7659;51.038;13.786;2023-10-09T06:34:45;19.23;;;12.93;;
15116;SDS011;7659;51.038;13.786;2023-10-09T06:37:12;18.00;;;11.50;;
15116;SDS011;7659;51.038;13.786;2023-10-09T06:39:50;14.52;;;11.38;;
15116;SDS011;7659;51.038;13.786;2023-10-09T06:42:16;16.80;;;12.15;;
15116;SDS011;7659;51.038;13.786;2023-10-09T06:45:03;22.30;;;11.98;;
15116;SDS011;7659;51.038;13.786;2023-10-09T06:47:34;23.83;;;13.18;;
15116;SDS011;7659;51.038;13.786;2023-10-09T06:50:10;18.77;;;13.00;;
15116;SDS011;7659;51.038;13.786;2023-10-09T06:52:48;14.93;;;11.80;;
15116;SDS011;7659;51.038;13.786;2023-10-09T06:55:26;19.08;;;11.77;;
15116;SDS011;7659;51.038;13.786;2023-10-09T06:57:59;19.70;;;12.15;;
15116;SDS011;7659;51.038;13.786;2023-10-09T07:00:27;16.58;;;11.95;;
15116;SDS011;7659;51.038;13.786;2023-10-09T07:03:11;17.63;;;12.75;;
15116;SDS011;7659;51.038;13.786;2023-10-09T07:05:37;19.33;;;13.00;;
15116;SDS011;7659;51.038;13.786;2023-10-09T07:08:23;22.60;;;12.25;;
15116;SDS011;7659;51.038;13.786;2023-10-09T07:11:00;17.95;;;12.35;;
15116;SDS011;7659;51.038;13.786;2023-10-09T07:13:49;20.52;;;13.05;;
15116;SDS011;7659;51.038;13.786;2023-10-09T07:16:21;19.88;;;12.48;;
15116;SDS011;7659;51.038;13.786;2023-10-09T07:18:54;20.75;;;13.00;;
15116;SDS011;7659;51.038;13.786;2023-10-09T07:21:20;17.98;;;13.23;;
15116;SDS011;7659;51.038;13.786;2023-10-09T07:23:53;21.42;;;14.02;;
15116;SDS011;7659;51.038;13.786;2023-10-09T07:26:22;21.38;;;14.10;;
15116;SDS011;7659;51.038;13.786;2023-10-09T07:29:04;18.52;;;13.07;;
15116;SDS011;7659;51.038;13.786;2023-10-09T07:31:47;18.77;;;13.00;;
15116;SDS011;7659;51.038;13.786;2023-10-09T07:34:12;19.33;;;13.48;;
15116;SDS011;7659;51.038;13.786;2023-10-09T07:36:56;18.58;;;13.60;;
15116;SDS011;7659;51.038;13.786;2023-10-09T07:39:22;22.98;;;14.40;;
15116;SDS011;7659;51.038;13.786;2023-10-09T07:41:48;24.48;;;14.82;;
15116;SDS011;7659;51.038;13.786;2023-10-09T07:44:40;23.45;;;14.35;;
15116;SDS011;7659;51.038;13.786;2023-10-09T07:47:07;20.50;;;14.07;;
15116;SDS011;7659;51.038;13.786;2023-10-09T07:49:43;23.52;;;14.90;;
15116;SDS011;7659;51.038;13.786;2023-10-09T07:52:14;21.67;;;14.70;;
15116;SDS011;7659;51.038;13.786;2023-10-09T07:54:40;17.55;;;14.15;;
15116;SDS011;7659;51.038;13.786;2023-10-09T07:57:16;20.05;;;14.50;;
15116;SDS011;7659;51.038;13.786;2023-10-09T07:59:42;20.77;;;14.77;;
15116;SDS011;7659;51.038;13.786;2023-10-09T08:02:22;18.90;;;13.95;;
15116;SDS011;7659;51.038;13.786;2023-10-09T08:05:00;22.27;;;15.80;;
15116;SDS011;7659;51.038;13.786;2023-10-09T08:07:30;25.00;;;15.27;;
15116;SDS011;7659;51.038;13.786;2023-10-09T08:10:06;20.00;;;14.70;;
15116;SDS011;7659;51.038;13.786;2023-10-09T08:12:38;22.92;;;14.30;;
15116;SDS011;7659;51.038;13.786;2023-10-09T08:15:23;21.30;;;15.20;;
15116;SDS011;7659;51.038;13.786;2023-10-09T08:17:52;23.52;;;14.88;;
15116;SDS011;7659;51.038;13.786;2023-10-09T08:20:27;24.52;;;15.93;;
15116;SDS011;7659;51.038;13.786;2023-10-09T08:22:53;26.05;;;16.70;;
15116;SDS011;7659;51.038;13.786;2023-10-09T08:25:22;22.75;;;15.38;;
15116;SDS011;7659;51.038;13.786;2023-10-09T08:28:00;22.80;;;14.70;;
15116;SDS011;7659;51.038;13.786;2023-10-09T08:30:44;23.33;;;15.73;;
15116;SDS011;7659;51.038;13.786;2023-10-09T08:33:19;22.85;;;16.42;;
15116;SDS011;7659;51.038;13.786;2023-10-09T08:35:50;25.85;;;15.93;;
15116;SDS011;7659;51.038;13.786;2023-10-09T08:38:17;23.52;;;16.38;;
15116;SDS011;7659;51.038;13.786;2023-10-09T08:40:49;25.98;;;16.88;;
15116;SDS011;7659;51.038;13.786;2023-10-09T08:45:54;29.65;;;18.77;;
15116;SDS011;7659;51.038;13.786;2023-10-09T08:48:26;33.72;;;19.83;;
15116;SDS011;7659;51.038;13.786;2023-10-09T08:50:53;27.15;;;17.80;;
15116;SDS011;7659;51.038;13.786;2023-10-09T08:53:22;31.20;;;19.13;;
15116;SDS011;7659;51.038;13.786;2023-10-09T08:55:49;30.95;;;18.60;;
15116;SDS011;7659;51.038;13.786;2023-10-09T08:58:15;29.10;;;18.92;;
15116;SDS011;7659;51.038;13.786;2023-10-09T09:00:45;28.17;;;18.90;;
15116;SDS011;7659;51.038;13.786;2023-10-09T09:03:12;32.03;;;18.65;;
15116;SDS011;7659;51.038;13.786;2023-10-09T09:05:37;27.00;;;18.00;;
15116;SDS011;7659;51.038;13.786;2023-10-09T09:08:03;27.13;;;18.40;;
15116;SDS011;7659;51.038;13.786;2023-10-09T09:10:29;32.35;;;20.08;;
15116;SDS011;7659;51.038;13.786;2023-10-09T09:13:03;29.92;;;18.52;;
15116;SDS011;7659;51.038;13.786;2023-10-09T09:15:31;28.02;;;18.90;;
15116;SDS011;7659;51.038;13.786;2023-10-09T09:18:07;29.70;;;19.27;;
15116;SDS011;7659;51.038;13.786;2023-10-09T09:20:36;32.13;;;18.83;;
15116;SDS011;7659;51.038;13.786;2023-10-09T09:23:05;27.45;;;18.75;;
15116;SDS011;7659;51.038;13.786;2023-10-09T09:25:41;31.48;;;18.48;;
15116;SDS011;7659;51.038;13.786;2023-10-09T09:28:14;27.02;;;17.08;;
15116;SDS011;7659;51.038;13.786;2023-10-09T09:30:45;37.47;;;20.42;;
15116;SDS011;7659;51.038;13.786;2023-10-09T09:33:25;31.83;;;18.48;;
15116;SDS011;7659;51.038;13.786;2023-10-09T09:36:05;31.10;;;18.45;;
15116;SDS011;7659;51.038;13.786;2023-10-09T09:38:32;36.03;;;18.77;;
15116;SDS011;7659;51.038;13.786;2023-10-09T09:41:13;27.33;;;16.67;;
15116;SDS011;7659;51.038;13.786;2023-10-09T09:43:50;28.90;;;15.98;;
15116;SDS011;7659;51.038;13.786;2023-10-09T09:46:16;34.13;;;17.83;;
15116;SDS011;7659;51.038;13.786;2023-10-09T09:48:43;30.42;;;16.25;;
15116;SDS011;7659;51.038;13.786;2023-10-09T09:51:11;26.30;;;15.38;;
15116;SDS011;7659;51.038;13.786;2023-10-09T09:53:39;28.83;;;16.67;;
15116;SDS011;7659;51.038;13.786;2023-10-09T09:56:05;27.50;;;15.38;;
15116;SDS011;7659;51.038;13.786;2023-10-09T09:58:31;28.08;;;14.75;;
15116;SDS011;7659;51.038;13.786;2023-10-09T10:01:08;27.42;;;14.07;;
15116;SDS011;7659;51.038;13.786;2023-10-09T10:03:42;25.75;;;13.25;;
15116;SDS011;7659;51.038;13.786;2023-10-09T10:06:09;25.25;;;13.35;;
15116;SDS011;7659;51.038;13.786;2023-10-09T10:08:37;19.83;;;12.30;;
15116;SDS011;7659;51.038;13.786;2023-10-09T10:11:04;21.90;;;12.30;;
15116;SDS011;7659;51.038;13.786;2023-10-09T10:14:03;25.35;;;11.93;;
15116;SDS011;7659;51.038;13.786;2023-10-09T10:16:24;19.52;;;10.80;;
15116;SDS011;7659;51.038;13.786;2023-10-09T10:19:04;16.30;;;10.15;;
15116;SDS011;7659;51.038;13.786;2023-10-09T10:21:33;18.65;;;9.70;;
15116;SDS011;7659;51.038;13.786;2023-10-09T10:24:04;19.83;;;10.50;;
15116;SDS011;7659;51.038;13.786;2023-10-09T10:26:35;23.30;;;11.63;;
15116;SDS011;7659;51.038;13.786;2023-10-09T10:32:03;14.07;;;8.57;;
15116;SDS011;7659;51.038;13.786;2023-10-09T10:37:21;18.15;;;9.35;;
15116;SDS011;7659;51.038;13.786;2023-10-09T10:39:54;15.95;;;9.23;;
15116;SDS011;7659;51.038;13.786;2023-10-09T10:42:24;16.40;;;9.60;;
15116;SDS011;7659;51.038;13.786;2023-10-09T10:45:02;19.55;;;11.57;;
15116;SDS011;7659;51.038;13.786;2023-10-09T10:47:28;18.98;;;9.57;;
15116;SDS011;7659;51.038;13.786;2023-10-09T10:50:01;18.55;;;9.77;;
15116;SDS011;7659;51.038;13.786;2023-10-09T10:52:46;18.02;;;10.07;;
15116;SDS011;7659;51.038;13.786;2023-10-09T10:55:22;20.80;;;10.15;;
15116;SDS011;7659;51.038;13.786;2023-10-09T10:57:56;16.10;;;9.02;;
15116;SDS011;7659;51.038;13.786;2023-10-09T11:00:28;29.02;;;11.35;;
15116;SDS011;7659;51.038;13.786;2023-10-09T11:03:19;17.90;;;10.50;;
15116;SDS011;7659;51.038;13.786;2023-10-09T11:06:00;19.08;;;9.68;;
15116;SDS011;7659;51.038;13.786;2023-10-09T11:08:38;19.87;;;10.50;;
15116;SDS011;7659;51.038;13.786;2023-10-09T11:11:15;18.85;;;10.43;;
15116;SDS011;7659;51.038;13.786;2023-10-09T11:13:41;19.65;;;10.52;;
15116;SDS011;7659;51.038;13.786;2023-10-09T11:16:23;21.77;;;11.18;;
15116;SDS011;7659;51.038;13.786;2023-10-09T11:19:01;16.42;;;10.38;;
15116;SDS011;7659;51.038;13.786;2023-10-09T11:21:37;21.08;;;11.35;;
15116;SDS011;7659;51.038;13.786;2023-10-09T11:24:07;17.23;;;10.30;;
15116;SDS011;7659;51.038;13.786;2023-10-09T11:26:51;19.15;;;11.95;;
15116;SDS011;7659;51.038;13.786;2023-10-09T11:29:21;21.13;;;11.60;;
15116;SDS011;7659;51.038;13.786;2023-10-09T11:32:19;20.88;;;10.68;;
15116;SDS011;7659;51.038;13.786;2023-10-09T11:34:47;20.65;;;11.57;;
15116;SDS011;7659;51.038;13.786;2023-10-09T11:37:20;23.98;;;12.50;;
15116;SDS011;7659;51.038;13.786;2023-10-09T11:39:56;21.60;;;11.98;;
15116;SDS011;7659;51.038;13.786;2023-10-09T11:42:22;24.25;;;11.65;;
15116;SDS011;7659;51.038;13.786;2023-10-09T11:45:05;22.90;;;12.30;;
15116;SDS011;7659;51.038;13.786;2023-10-09T11:47:45;27.52;;;16.45;;
15116;SDS011;7659;51.038;13.786;2023-10-09T11:50:43;22.63;;;13.77;;
15116;SDS011;7659;51.038;13.786;2023-10-09T11:53:08;24.10;;;12.95;;
15116;SDS011;7659;51.038;13.786;2023-10-09T11:55:37;23.80;;;14.05;;
15116;SDS011;7659;51.038;13.786;2023-10-09T11:58:03;25.00;;;13.30;;
15116;SDS011;7659;51.038;13.786;2023-10-09T12:00:30;26.27;;;14.77;;
15116;SDS011;7659;51.038;13.786;2023-10-09T12:02:57;27.50;;;14.43;;
15116;SDS011;7659;51.038;13.786;2023-10-09T12:05:31;23.90;;;14.60;;
15116;SDS011;7659;51.038;13.786;2023-10-09T12:07:57;21.23;;;13.45;;
15116;SDS011;7659;51.038;13.786;2023-10-09T12:10:24;24.35;;;13.77;;
15116;SDS011;7659;51.038;13.786;2023-10-09T12:12:51;22.35;;;14.05;;
15116;SDS011;7659;51.038;13.786;2023-10-09T12:15:17;25.30;;;14.70;;
15116;SDS011;7659;51.038;13.786;2023-10-09T12:17:46;26.90;;;15.82;;
15116;SDS011;7659;51.038;13.786;2023-10-09T12:20:15;30.52;;;14.95;;
15116;SDS011;7659;51.038;13.786;2023-10-09T12:23:00;26.33;;;14.13;;
15116;SDS011;7659;51.038;13.786;2023-10-09T12:25:26;25.33;;;14.13;;
15116;SDS011;7659;51.038;13.786;2023-10-09T12:27:56;23.02;;;14.10;;
15116;SDS011;7659;51.038;13.786;2023-10-09T12:30:23;21.42;;;14.13;;
15116;SDS011;7659;51.038;13.786;2023-10-09T12:32:52;31.92;;;16.08;;
15116;SDS011;7659;51.038;13.786;2023-10-09T12:35:18;24.20;;;13.98;;
15116;SDS011;7659;51.038;13.786;2023-10-09T12:37:44;28.80;;;15.38;;
15116;SDS011;7659;51.038;13.786;2023-10-09T12:40:09;22.63;;;15.13;;
15116;SDS011;7659;51.038;13.786;2023-10-09T12:42:36;26.20;;;14.57;;
15116;SDS011;7659;51.038;13.786;2023-10-09T12:45:02;23.38;;;14.63;;
15116;SDS011;7659;51.038;13.786;2023-10-09T12:47:33;28.77;;;15.27;;
15116;SDS011;7659;51.038;13.786;2023-10-09T12:49:59;26.60;;;15.50;;
15116;SDS011;7659;51.038;13.786;2023-10-09T12:52:24;30.40;;;15.63;;
15116;SDS011;7659;51.038;13.786;2023-10-09T12:54:55;24.17;;;14.75;;
15116;SDS011;7659;51.038;13.786;2023-10-09T12:57:20;26.20;;;14.27;;
15116;SDS011;7659;51.038;13.786;2023-10-09T12:59:46;25.42;;;15.77;;
15116;SDS011;7659;51.038;13.786;2023-10-09T13:02:14;30.63;;;15.32;;
15116;SDS011;7659;51.038;13.786;2023-10-09T13:04:55;25.42;;;15.60;;
15116;SDS011;7659;51.038;13.786;2023-10-09T13:07:21;24.55;;;15.10;;
15116;SDS011;7659;51.038;13.786;2023-10-09T13:09:47;23.48;;;14.18;;
15116;SDS011;7659;51.038;13.786;2023-10-09T13:12:33;32.00;;;16.30;;
15116;SDS011;7659;51.038;13.786;2023-10-09T13:14:58;21.88;;;13.75;;
15116;SDS011;7659;51.038;13.786;2023-10-09T13:17:24;21.55;;;14.85;;
15116;SDS011;7659;51.038;13.786;2023-10-09T13:19:52;25.27;;;15.02;;
15116;SDS011;7659;51.038;13.786;2023-10-09T13:22:18;26.63;;;15.82;;
15116;SDS011;7659;51.038;13.786;2023-10-09T13:24:44;32.28;;;15.65;;
15116;SDS011;7659;51.038;13.786;2023-10-09T13:27:13;25.35;;;15.05;;
15116;SDS011;7659;51.038;13.786;2023-10-09T13:29:46;28.05;;;15.30;;
15116;SDS011;7659;51.038;13.786;2023-10-09T13:32:13;27.48;;;15.57;;
15116;SDS011;7659;51.038;13.786;2023-10-09T13:34:40;28.33;;;14.90;;
15116;SDS011;7659;51.038;13.786;2023-10-09T13:37:12;27.52;;;14.57;;
15116;SDS011;7659;51.038;13.786;2023-10-09T13:39:39;25.40;;;14.93;;
15116;SDS011;7659;51.038;13.786;2023-10-09T13:42:17;26.80;;;15.25;;
15116;SDS011;7659;51.038;13.786;2023-10-09T13:44:42;24.05;;;14.80;;
15116;SDS011;7659;51.038;13.786;2023-10-09T13:47:08;25.52;;;15.23;;
15116;SDS011;7659;51.038;13.786;2023-10-09T13:49:47;28.98;;;15.32;;
15116;SDS011;7659;51.038;13.786;2023-10-09T13:52:16;28.90;;;16.42;;
15116;SDS011;7659;51.038;13.786;2023-10-09T13:54:43;29.33;;;17.77;;
15116;SDS011;7659;51.038;13.786;2023-10-09T13:57:13;32.13;;;17.98;;
15116;SDS011;7659;51.038;13.786;2023-10-09T13:59:40;31.75;;;16.83;;
15116;SDS011;7659;51.038;13.786;2023-10-09T14:02:09;26.35;;;16.58;;
15116;SDS011;7659;51.038;13.786;2023-10-09T14:04:35;23.60;;;15.35;;
15116;SDS011;7659;51.038;13.786;2023-10-09T14:07:00;25.40;;;15.25;;
15116;SDS011;7659;51.038;13.786;2023-10-09T14:09:27;24.27;;;13.98;;
15116;SDS011;7659;51.038;13.786;2023-10-09T14:11:56;27.83;;;16.58;;
15116;SDS011;7659;51.038;13.786;2023-10-09T14:14:37;24.25;;;15.45;;
15116;SDS011;7659;51.038;13.786;2023-10-09T14:17:09;28.15;;;16.30;;
15116;SDS011;7659;51.038;13.786;2023-10-09T14:19:41;27.35;;;17.15;;
15116;SDS011;7659;51.038;13.786;2023-10-09T14:24:41;29.38;;;16.33;;
15116;SDS011;7659;51.038;13.786;2023-10-09T14:27:16;28.35;;;17.38;;
15116;SDS011;7659;51.038;13.786;2023-10-09T14:32:10;28.95;;;15.93;;
15116;SDS011;7659;51.038;13.786;2023-10-09T14:34:38;29.05;;;16.02;;
15116;SDS011;7659;51.038;13.786;2023-10-09T14:37:11;22.90;;;15.13;;
15116;SDS011;7659;51.038;13.786;2023-10-09T14:39:40;25.83;;;14.90;;
15116;SDS011;7659;51.038;13.786;2023-10-09T14:42:05;27.73;;;15.77;;
15116;SDS011;7659;51.038;13.786;2023-10-09T14:44:35;22.10;;;14.45;;
15116;SDS011;7659;51.038;13.786;2023-10-09T14:47:06;24.65;;;13.30;;
15116;SDS011;7659;51.038;13.786;2023-10-09T14:49:32;20.40;;;13.32;;
15116;SDS011;7659;51.038;13.786;2023-10-09T14:52:03;20.30;;;12.68;;
15116;SDS011;7659;51.038;13.786;2023-10-09T14:54:31;22.95;;;13.95;;
15116;SDS011;7659;51.038;13.786;2023-10-09T14:56:57;23.02;;;12.77;;
15116;SDS011;7659;51.038;13.786;2023-10-09T14:59:22;20.65;;;12.63;;
15116;SDS011;7659;51.038;13.786;2023-10-09T15:01:48;20.88;;;12.57;;
15116;SDS011;7659;51.038;13.786;2023-10-09T15:04:19;23.27;;;14.52;;
15116;SDS011;7659;51.038;13.786;2023-10-09T15:06:44;24.05;;;12.98;;
15116;SDS011;7659;51.038;13.786;2023-10-09T15:09:12;20.77;;;13.15;;
15116;SDS011;7659;51.038;13.786;2023-10-09T15:11:50;23.58;;;13.73;;
15116;SDS011;7659;51.038;13.786;2023-10-09T15:14:17;21.23;;;14.82;;
15116;SDS011;7659;51.038;13.786;2023-10-09T15:16:45;21.17;;;13.45;;